sensor_id;sensor_type;location;lat;lon;timestamp;P1;durP1;ratioP1;P2;durP2;ratioP2
54853;SDS011;40747;49.480;8.658;2023-04-19T00:01:57;4.82;;;3.20;;
54853;SDS011;40747;49.480;8.658;2023-04-19T00:04:22;6.63;;;3.95;;
54853;SDS011;40747;49.480;8.658;2023-04-19T00:06:47;7.53;;;4.13;;
54853;SDS011;40747;49.480;8.658;2023-04-19T00:09:13;9.93;;;4.35;;
54853;SDS011;40747;49.480;8.658;2023-04-19T00:11:38;6.85;;;3.80;;
54853;SDS011;40747;49.480;8.658;2023-04-19T00:14:03;6.78;;;3.78;;
54853;SDS011;40747;49.480;8.658;2023-04-19T00:16:29;7.85;;;4.03;;
54853;SDS011;40747;49.480;8.658;2023-04-19T00:18:54;8.60;;;4.50;;
54853;SDS011;40747;49.480;8.658;2023-04-19T00:21:19;6.43;;;3.90;;
54853;SDS011;40747;49.480;8.658;2023-04-19T00:23:45;4.50;;;3.42;;
54853;SDS011;40747;49.480;8.658;2023-04-19T00:26:10;7.20;;;3.95;;
54853;SDS011;40747;49.480;8.658;2023-04-19T00:28:39;5.63;;;3.65;;
54853;SDS011;40747;49.480;8.658;2023-04-19T00:31:04;5.55;;;3.70;;
54853;SDS011;40747;49.480;8.658;2023-04-19T00:33:29;9.73;;;3.75;;
54853;SDS011;40747;49.480;8.658;2023-04-19T00:35:55;8.27;;;4.65;;
54853;SDS011;40747;49.480;8.658;2023-04-19T00:38:20;7.90;;;3.85;;
54853;SDS011;40747;49.480;8.658;2023-04-19T00:40:45;7.22;;;3.00;;
54853;SDS011;40747;49.480;8.658;2023-04-19T00:43:11;7.13;;;3.92;;
54853;SDS011;40747;49.480;8.658;2023-04-19T00:45:45;7.45;;;4.05;;
54853;SDS011;40747;49.480;8.658;2023-04-19T00:48:12;5.03;;;3.63;;
54853;SDS011;40747;49.480;8.658;2023-04-19T00:50:38;4.85;;;3.10;;
54853;SDS011;40747;49.480;8.658;2023-04-19T00:53:04;7.50;;;3.97;;
54853;SDS011;40747;49.480;8.658;2023-04-19T00:55:31;6.43;;;3.50;;
54853;SDS011;40747;49.480;8.658;2023-04-19T00:57:57;7.13;;;3.55;;
54853;SDS011;40747;49.480;8.658;2023-04-19T01:00:23;7.10;;;3.67;;
54853;SDS011;40747;49.480;8.658;2023-04-19T01:02:48;5.45;;;3.30;;
54853;SDS011;40747;49.480;8.658;2023-04-19T01:05:14;5.40;;;3.47;;
54853;SDS011;40747;49.480;8.658;2023-04-19T01:07:39;7.57;;;4.13;;
54853;SDS011;40747;49.480;8.658;2023-04-19T01:10:05;4.90;;;3.40;;
54853;SDS011;40747;49.480;8.658;2023-04-19T01:12:30;4.53;;;2.83;;
54853;SDS011;40747;49.480;8.658;2023-04-19T01:14:56;6.10;;;3.28;;
54853;SDS011;40747;49.480;8.658;2023-04-19T01:17:21;5.45;;;3.15;;
54853;SDS011;40747;49.480;8.658;2023-04-19T01:19:46;5.50;;;3.78;;
54853;SDS011;40747;49.480;8.658;2023-04-19T01:22:15;3.20;;;2.17;;
54853;SDS011;40747;49.480;8.658;2023-04-19T01:24:43;5.47;;;3.58;;
54853;SDS011;40747;49.480;8.658;2023-04-19T01:27:08;4.82;;;2.58;;
54853;SDS011;40747;49.480;8.658;2023-04-19T01:29:33;4.70;;;3.20;;
54853;SDS011;40747;49.480;8.658;2023-04-19T01:31:59;5.65;;;3.47;;
54853;SDS011;40747;49.480;8.658;2023-04-19T01:34:24;7.00;;;3.92;;
54853;SDS011;40747;49.480;8.658;2023-04-19T01:36:49;5.25;;;2.55;;
54853;SDS011;40747;49.480;8.658;2023-04-19T01:39:15;5.18;;;3.20;;
54853;SDS011;40747;49.480;8.658;2023-04-19T01:41:40;5.65;;;3.50;;
54853;SDS011;40747;49.480;8.658;2023-04-19T01:44:06;5.03;;;3.25;;
54853;SDS011;40747;49.480;8.658;2023-04-19T01:46:31;7.63;;;3.88;;
54853;SDS011;40747;49.480;8.658;2023-04-19T01:48:56;4.93;;;3.13;;
54853;SDS011;40747;49.480;8.658;2023-04-19T01:51:22;6.80;;;3.50;;
54853;SDS011;40747;49.480;8.658;2023-04-19T01:53:47;7.25;;;3.55;;
54853;SDS011;40747;49.480;8.658;2023-04-19T01:56:17;3.90;;;2.28;;
54853;SDS011;40747;49.480;8.658;2023-04-19T01:58:43;6.93;;;3.78;;
54853;SDS011;40747;49.480;8.658;2023-04-19T02:01:08;4.10;;;2.78;;
54853;SDS011;40747;49.480;8.658;2023-04-19T02:03:36;5.13;;;3.38;;
54853;SDS011;40747;49.480;8.658;2023-04-19T02:06:05;6.93;;;3.65;;
54853;SDS011;40747;49.480;8.658;2023-04-19T02:08:34;6.00;;;3.75;;
54853;SDS011;40747;49.480;8.658;2023-04-19T02:11:03;4.78;;;3.10;;
54853;SDS011;40747;49.480;8.658;2023-04-19T02:13:30;5.90;;;3.47;;
54853;SDS011;40747;49.480;8.658;2023-04-19T02:15:55;4.53;;;3.08;;
54853;SDS011;40747;49.480;8.658;2023-04-19T02:18:21;6.55;;;3.70;;
54853;SDS011;40747;49.480;8.658;2023-04-19T02:20:46;5.90;;;3.90;;
54853;SDS011;40747;49.480;8.658;2023-04-19T02:23:11;6.40;;;3.22;;
54853;SDS011;40747;49.480;8.658;2023-04-19T02:25:37;5.85;;;3.78;;
54853;SDS011;40747;49.480;8.658;2023-04-19T02:28:02;5.30;;;3.08;;
54853;SDS011;40747;49.480;8.658;2023-04-19T02:30:27;6.30;;;3.63;;
54853;SDS011;40747;49.480;8.658;2023-04-19T02:32:53;7.35;;;3.90;;
54853;SDS011;40747;49.480;8.658;2023-04-19T02:35:19;6.43;;;3.10;;
54853;SDS011;40747;49.480;8.658;2023-04-19T02:37:44;5.30;;;3.13;;
54853;SDS011;40747;49.480;8.658;2023-04-19T02:40:09;3.53;;;2.22;;
54853;SDS011;40747;49.480;8.658;2023-04-19T02:42:35;6.40;;;3.38;;
54853;SDS011;40747;49.480;8.658;2023-04-19T02:45:01;5.13;;;2.75;;
54853;SDS011;40747;49.480;8.658;2023-04-19T02:47:26;7.75;;;3.03;;
54853;SDS011;40747;49.480;8.658;2023-04-19T02:49:51;9.85;;;4.13;;
54853;SDS011;40747;49.480;8.658;2023-04-19T02:52:17;4.60;;;2.55;;
54853;SDS011;40747;49.480;8.658;2023-04-19T02:54:42;5.78;;;3.20;;
54853;SDS011;40747;49.480;8.658;2023-04-19T02:57:07;6.05;;;3.63;;
54853;SDS011;40747;49.480;8.658;2023-04-19T02:59:33;5.22;;;3.08;;
54853;SDS011;40747;49.480;8.658;2023-04-19T03:01:58;4.22;;;2.55;;
54853;SDS011;40747;49.480;8.658;2023-04-19T03:04:23;5.07;;;3.47;;
54853;SDS011;40747;49.480;8.658;2023-04-19T03:06:48;4.30;;;2.83;;
54853;SDS011;40747;49.480;8.658;2023-04-19T03:09:14;4.43;;;2.83;;
54853;SDS011;40747;49.480;8.658;2023-04-19T03:11:39;4.65;;;2.75;;
54853;SDS011;40747;49.480;8.658;2023-04-19T03:14:04;5.38;;;3.05;;
54853;SDS011;40747;49.480;8.658;2023-04-19T03:16:30;4.97;;;2.50;;
54853;SDS011;40747;49.480;8.658;2023-04-19T03:18:55;4.95;;;3.30;;
54853;SDS011;40747;49.480;8.658;2023-04-19T03:21:20;5.13;;;3.10;;
54853;SDS011;40747;49.480;8.658;2023-04-19T03:23:46;3.83;;;2.70;;
54853;SDS011;40747;49.480;8.658;2023-04-19T03:26:11;4.95;;;3.03;;
54853;SDS011;40747;49.480;8.658;2023-04-19T03:28:36;4.63;;;2.80;;
54853;SDS011;40747;49.480;8.658;2023-04-19T03:31:02;4.22;;;2.60;;
54853;SDS011;40747;49.480;8.658;2023-04-19T03:33:27;4.03;;;2.35;;
54853;SDS011;40747;49.480;8.658;2023-04-19T03:35:52;5.05;;;3.30;;
54853;SDS011;40747;49.480;8.658;2023-04-19T03:38:18;4.65;;;2.70;;
54853;SDS011;40747;49.480;8.658;2023-04-19T03:40:43;5.78;;;3.40;;
54853;SDS011;40747;49.480;8.658;2023-04-19T03:43:08;6.45;;;3.45;;
54853;SDS011;40747;49.480;8.658;2023-04-19T03:45:33;6.55;;;3.40;;
54853;SDS011;40747;49.480;8.658;2023-04-19T03:47:59;4.72;;;3.05;;
54853;SDS011;40747;49.480;8.658;2023-04-19T03:50:24;6.25;;;3.83;;
54853;SDS011;40747;49.480;8.658;2023-04-19T03:52:49;5.22;;;3.20;;
54853;SDS011;40747;49.480;8.658;2023-04-19T03:55:15;4.72;;;2.88;;
54853;SDS011;40747;49.480;8.658;2023-04-19T03:57:40;8.10;;;3.50;;
54853;SDS011;40747;49.480;8.658;2023-04-19T04:00:05;6.05;;;3.10;;
54853;SDS011;40747;49.480;8.658;2023-04-19T04:02:32;5.43;;;3.38;;
54853;SDS011;40747;49.480;8.658;2023-04-19T04:04:57;4.13;;;3.10;;
54853;SDS011;40747;49.480;8.658;2023-04-19T04:07:22;4.07;;;2.63;;
54853;SDS011;40747;49.480;8.658;2023-04-19T04:09:48;5.18;;;3.35;;
54853;SDS011;40747;49.480;8.658;2023-04-19T04:12:14;8.63;;;3.92;;
54853;SDS011;40747;49.480;8.658;2023-04-19T04:14:39;6.47;;;3.83;;
54853;SDS011;40747;49.480;8.658;2023-04-19T04:17:05;5.13;;;3.10;;
54853;SDS011;40747;49.480;8.658;2023-04-19T04:19:30;6.43;;;4.05;;
54853;SDS011;40747;49.480;8.658;2023-04-19T04:21:55;4.68;;;3.50;;
54853;SDS011;40747;49.480;8.658;2023-04-19T04:24:21;6.07;;;3.45;;
54853;SDS011;40747;49.480;8.658;2023-04-19T04:26:46;5.00;;;3.13;;
54853;SDS011;40747;49.480;8.658;2023-04-19T04:29:13;4.60;;;3.22;;
54853;SDS011;40747;49.480;8.658;2023-04-19T04:31:39;5.50;;;3.35;;
54853;SDS011;40747;49.480;8.658;2023-04-19T04:34:04;8.48;;;2.90;;
54853;SDS011;40747;49.480;8.658;2023-04-19T04:36:30;6.63;;;3.45;;
54853;SDS011;40747;49.480;8.658;2023-04-19T04:38:55;5.18;;;3.30;;
54853;SDS011;40747;49.480;8.658;2023-04-19T04:41:21;6.97;;;3.38;;
54853;SDS011;40747;49.480;8.658;2023-04-19T04:43:47;5.30;;;3.30;;
54853;SDS011;40747;49.480;8.658;2023-04-19T04:46:15;6.70;;;3.28;;
54853;SDS011;40747;49.480;8.658;2023-04-19T04:48:41;5.53;;;3.55;;
54853;SDS011;40747;49.480;8.658;2023-04-19T04:51:06;10.30;;;3.70;;
54853;SDS011;40747;49.480;8.658;2023-04-19T04:53:31;5.65;;;2.70;;
54853;SDS011;40747;49.480;8.658;2023-04-19T04:55:56;4.72;;;3.10;;
54853;SDS011;40747;49.480;8.658;2023-04-19T04:58:22;6.55;;;3.65;;
54853;SDS011;40747;49.480;8.658;2023-04-19T05:00:47;7.05;;;3.38;;
54853;SDS011;40747;49.480;8.658;2023-04-19T05:03:13;5.40;;;3.10;;
54853;SDS011;40747;49.480;8.658;2023-04-19T05:05:39;7.00;;;3.80;;
54853;SDS011;40747;49.480;8.658;2023-04-19T05:08:04;7.38;;;3.58;;
54853;SDS011;40747;49.480;8.658;2023-04-19T05:10:30;5.65;;;3.47;;
54853;SDS011;40747;49.480;8.658;2023-04-19T05:12:55;5.88;;;3.15;;
54853;SDS011;40747;49.480;8.658;2023-04-19T05:15:20;9.23;;;4.70;;
54853;SDS011;40747;49.480;8.658;2023-04-19T05:17:46;7.93;;;4.15;;
54853;SDS011;40747;49.480;8.658;2023-04-19T05:20:11;5.90;;;4.22;;
54853;SDS011;40747;49.480;8.658;2023-04-19T05:22:37;6.78;;;3.97;;
54853;SDS011;40747;49.480;8.658;2023-04-19T05:25:02;7.15;;;3.53;;
54853;SDS011;40747;49.480;8.658;2023-04-19T05:27:28;7.28;;;4.68;;
54853;SDS011;40747;49.480;8.658;2023-04-19T05:29:53;8.63;;;4.22;;
54853;SDS011;40747;49.480;8.658;2023-04-19T05:32:18;5.65;;;3.95;;
54853;SDS011;40747;49.480;8.658;2023-04-19T05:34:44;7.50;;;4.07;;
54853;SDS011;40747;49.480;8.658;2023-04-19T05:37:09;6.15;;;3.28;;
54853;SDS011;40747;49.480;8.658;2023-04-19T05:39:35;7.15;;;4.00;;
54853;SDS011;40747;49.480;8.658;2023-04-19T05:42:00;5.90;;;3.63;;
54853;SDS011;40747;49.480;8.658;2023-04-19T05:44:26;6.07;;;3.22;;
54853;SDS011;40747;49.480;8.658;2023-04-19T05:46:51;5.90;;;4.28;;
54853;SDS011;40747;49.480;8.658;2023-04-19T05:49:16;7.82;;;4.35;;
54853;SDS011;40747;49.480;8.658;2023-04-19T05:51:42;8.25;;;3.92;;
54853;SDS011;40747;49.480;8.658;2023-04-19T05:54:07;8.40;;;4.72;;
54853;SDS011;40747;49.480;8.658;2023-04-19T05:56:36;5.95;;;3.25;;
54853;SDS011;40747;49.480;8.658;2023-04-19T05:59:01;5.88;;;3.92;;
54853;SDS011;40747;49.480;8.658;2023-04-19T06:01:27;8.30;;;3.85;;
54853;SDS011;40747;49.480;8.658;2023-04-19T06:03:52;7.88;;;5.40;;
54853;SDS011;40747;49.480;8.658;2023-04-19T06:06:20;7.43;;;3.85;;
54853;SDS011;40747;49.480;8.658;2023-04-19T06:08:46;8.65;;;4.47;;
54853;SDS011;40747;49.480;8.658;2023-04-19T06:11:11;10.15;;;4.93;;
54853;SDS011;40747;49.480;8.658;2023-04-19T06:13:37;8.73;;;4.85;;
54853;SDS011;40747;49.480;8.658;2023-04-19T06:16:02;5.63;;;3.50;;
54853;SDS011;40747;49.480;8.658;2023-04-19T06:18:27;8.63;;;4.57;;
54853;SDS011;40747;49.480;8.658;2023-04-19T06:20:53;7.68;;;4.13;;
54853;SDS011;40747;49.480;8.658;2023-04-19T06:23:18;7.85;;;4.50;;
54853;SDS011;40747;49.480;8.658;2023-04-19T06:25:44;7.10;;;3.78;;
54853;SDS011;40747;49.480;8.658;2023-04-19T06:28:12;7.22;;;4.22;;
54853;SDS011;40747;49.480;8.658;2023-04-19T06:30:37;8.57;;;4.13;;
54853;SDS011;40747;49.480;8.658;2023-04-19T06:33:02;5.65;;;4.00;;
54853;SDS011;40747;49.480;8.658;2023-04-19T06:35:28;6.28;;;3.60;;
54853;SDS011;40747;49.480;8.658;2023-04-19T06:37:53;7.72;;;3.65;;
54853;SDS011;40747;49.480;8.658;2023-04-19T06:40:18;6.22;;;3.53;;
54853;SDS011;40747;49.480;8.658;2023-04-19T06:42:44;7.45;;;3.90;;
54853;SDS011;40747;49.480;8.658;2023-04-19T06:45:09;7.32;;;5.13;;
54853;SDS011;40747;49.480;8.658;2023-04-19T06:47:35;8.02;;;4.05;;
54853;SDS011;40747;49.480;8.658;2023-04-19T06:50:00;8.65;;;3.83;;
54853;SDS011;40747;49.480;8.658;2023-04-19T06:52:25;7.82;;;4.45;;
54853;SDS011;40747;49.480;8.658;2023-04-19T06:54:51;4.78;;;3.10;;
54853;SDS011;40747;49.480;8.658;2023-04-19T06:57:16;7.55;;;4.93;;
54853;SDS011;40747;49.480;8.658;2023-04-19T06:59:42;9.38;;;4.43;;
54853;SDS011;40747;49.480;8.658;2023-04-19T07:02:08;7.85;;;3.95;;
54853;SDS011;40747;49.480;8.658;2023-04-19T07:04:33;9.57;;;4.80;;
54853;SDS011;40747;49.480;8.658;2023-04-19T07:06:59;7.05;;;4.60;;
54853;SDS011;40747;49.480;8.658;2023-04-19T07:09:24;9.95;;;4.63;;
54853;SDS011;40747;49.480;8.658;2023-04-19T07:11:50;9.70;;;5.43;;
54853;SDS011;40747;49.480;8.658;2023-04-19T07:14:16;9.55;;;4.53;;
54853;SDS011;40747;49.480;8.658;2023-04-19T07:16:43;7.40;;;4.35;;
54853;SDS011;40747;49.480;8.658;2023-04-19T07:19:09;9.73;;;4.75;;
54853;SDS011;40747;49.480;8.658;2023-04-19T07:21:34;9.55;;;5.15;;
54853;SDS011;40747;49.480;8.658;2023-04-19T07:24:00;8.02;;;3.75;;
54853;SDS011;40747;49.480;8.658;2023-04-19T07:26:25;9.18;;;4.70;;
54853;SDS011;40747;49.480;8.658;2023-04-19T07:28:50;8.68;;;4.85;;
54853;SDS011;40747;49.480;8.658;2023-04-19T07:31:16;9.10;;;5.03;;
54853;SDS011;40747;49.480;8.658;2023-04-19T07:33:42;7.15;;;4.03;;
54853;SDS011;40747;49.480;8.658;2023-04-19T07:36:08;8.15;;;4.40;;
54853;SDS011;40747;49.480;8.658;2023-04-19T07:38:34;8.02;;;4.75;;
54853;SDS011;40747;49.480;8.658;2023-04-19T07:41:00;7.22;;;3.95;;
54853;SDS011;40747;49.480;8.658;2023-04-19T07:43:25;6.30;;;3.92;;
54853;SDS011;40747;49.480;8.658;2023-04-19T07:45:51;8.95;;;4.10;;
54853;SDS011;40747;49.480;8.658;2023-04-19T07:48:17;6.40;;;3.50;;
54853;SDS011;40747;49.480;8.658;2023-04-19T07:50:42;8.35;;;3.83;;
54853;SDS011;40747;49.480;8.658;2023-04-19T07:53:07;6.30;;;3.92;;
54853;SDS011;40747;49.480;8.658;2023-04-19T07:55:32;5.70;;;3.50;;
54853;SDS011;40747;49.480;8.658;2023-04-19T07:57:58;7.70;;;3.95;;
54853;SDS011;40747;49.480;8.658;2023-04-19T08:00:23;7.72;;;3.90;;
54853;SDS011;40747;49.480;8.658;2023-04-19T08:02:48;6.43;;;3.58;;
54853;SDS011;40747;49.480;8.658;2023-04-19T08:05:14;5.25;;;3.53;;
54853;SDS011;40747;49.480;8.658;2023-04-19T08:07:43;8.85;;;3.70;;
54853;SDS011;40747;49.480;8.658;2023-04-19T08:10:09;6.85;;;3.53;;
54853;SDS011;40747;49.480;8.658;2023-04-19T08:12:36;4.90;;;3.25;;
54853;SDS011;40747;49.480;8.658;2023-04-19T08:15:02;6.30;;;3.42;;
54853;SDS011;40747;49.480;8.658;2023-04-19T08:17:28;6.30;;;3.38;;
54853;SDS011;40747;49.480;8.658;2023-04-19T08:19:53;7.10;;;3.83;;
54853;SDS011;40747;49.480;8.658;2023-04-19T08:22:19;7.13;;;4.13;;
54853;SDS011;40747;49.480;8.658;2023-04-19T08:24:45;5.95;;;4.05;;
54853;SDS011;40747;49.480;8.658;2023-04-19T08:27:13;6.78;;;4.25;;
54853;SDS011;40747;49.480;8.658;2023-04-19T08:29:38;8.10;;;4.03;;
54853;SDS011;40747;49.480;8.658;2023-04-19T08:32:04;6.45;;;3.88;;
54853;SDS011;40747;49.480;8.658;2023-04-19T08:34:30;7.30;;;3.53;;
54853;SDS011;40747;49.480;8.658;2023-04-19T08:36:58;6.00;;;3.42;;
54853;SDS011;40747;49.480;8.658;2023-04-19T08:39:23;5.30;;;3.03;;
54853;SDS011;40747;49.480;8.658;2023-04-19T08:41:48;7.25;;;3.88;;
54853;SDS011;40747;49.480;8.658;2023-04-19T08:44:14;5.38;;;3.42;;
54853;SDS011;40747;49.480;8.658;2023-04-19T08:46:41;6.38;;;3.85;;
54853;SDS011;40747;49.480;8.658;2023-04-19T08:49:07;6.68;;;4.07;;
54853;SDS011;40747;49.480;8.658;2023-04-19T08:51:33;9.15;;;4.45;;
54853;SDS011;40747;49.480;8.658;2023-04-19T08:53:59;7.63;;;4.00;;
54853;SDS011;40747;49.480;8.658;2023-04-19T08:56:26;4.75;;;3.25;;
54853;SDS011;40747;49.480;8.658;2023-04-19T08:58:52;6.63;;;3.92;;
54853;SDS011;40747;49.480;8.658;2023-04-19T09:01:17;7.10;;;4.13;;
54853;SDS011;40747;49.480;8.658;2023-04-19T09:03:43;6.63;;;3.78;;
54853;SDS011;40747;49.480;8.658;2023-04-19T09:06:11;6.03;;;4.05;;
54853;SDS011;40747;49.480;8.658;2023-04-19T09:08:37;5.80;;;3.75;;
54853;SDS011;40747;49.480;8.658;2023-04-19T09:11:04;7.53;;;4.32;;
54853;SDS011;40747;49.480;8.658;2023-04-19T09:13:30;7.28;;;3.92;;
54853;SDS011;40747;49.480;8.658;2023-04-19T09:15:56;7.32;;;4.15;;
54853;SDS011;40747;49.480;8.658;2023-04-19T09:18:22;13.05;;;4.03;;
54853;SDS011;40747;49.480;8.658;2023-04-19T09:20:49;9.25;;;4.43;;
54853;SDS011;40747;49.480;8.658;2023-04-19T09:23:15;8.73;;;5.00;;
54853;SDS011;40747;49.480;8.658;2023-04-19T09:26:00;6.70;;;4.05;;
54853;SDS011;40747;49.480;8.658;2023-04-19T09:28:26;7.25;;;4.18;;
54853;SDS011;40747;49.480;8.658;2023-04-19T09:30:53;11.15;;;4.05;;
54853;SDS011;40747;49.480;8.658;2023-04-19T09:33:36;8.05;;;5.05;;
54853;SDS011;40747;49.480;8.658;2023-04-19T09:36:05;7.55;;;4.57;;
54853;SDS011;40747;49.480;8.658;2023-04-19T09:38:47;7.07;;;4.45;;
54853;SDS011;40747;49.480;8.658;2023-04-19T09:41:15;7.85;;;4.22;;
54853;SDS011;40747;49.480;8.658;2023-04-19T09:43:41;7.72;;;5.18;;
54853;SDS011;40747;49.480;8.658;2023-04-19T09:46:07;10.07;;;4.60;;
54853;SDS011;40747;49.480;8.658;2023-04-19T09:48:32;10.60;;;3.75;;
54853;SDS011;40747;49.480;8.658;2023-04-19T09:50:58;9.63;;;4.25;;
54853;SDS011;40747;49.480;8.658;2023-04-19T09:53:25;10.07;;;4.18;;
54853;SDS011;40747;49.480;8.658;2023-04-19T09:55:51;6.70;;;3.70;;
54853;SDS011;40747;49.480;8.658;2023-04-19T09:58:18;6.60;;;3.75;;
54853;SDS011;40747;49.480;8.658;2023-04-19T10:00:44;9.13;;;4.85;;
54853;SDS011;40747;49.480;8.658;2023-04-19T10:03:13;7.22;;;4.72;;
54853;SDS011;40747;49.480;8.658;2023-04-19T10:05:40;8.85;;;5.15;;
54853;SDS011;40747;49.480;8.658;2023-04-19T10:08:07;9.85;;;5.25;;
54853;SDS011;40747;49.480;8.658;2023-04-19T10:10:33;8.38;;;5.00;;
54853;SDS011;40747;49.480;8.658;2023-04-19T10:12:59;8.43;;;4.88;;
54853;SDS011;40747;49.480;8.658;2023-04-19T10:15:32;7.50;;;4.53;;
54853;SDS011;40747;49.480;8.658;2023-04-19T10:17:59;8.65;;;5.82;;
54853;SDS011;40747;49.480;8.658;2023-04-19T10:20:33;11.57;;;5.68;;
54853;SDS011;40747;49.480;8.658;2023-04-19T10:23:06;8.95;;;5.25;;
54853;SDS011;40747;49.480;8.658;2023-04-19T10:25:35;11.38;;;5.10;;
54853;SDS011;40747;49.480;8.658;2023-04-19T10:28:01;9.25;;;4.70;;
54853;SDS011;40747;49.480;8.658;2023-04-19T10:30:26;10.35;;;6.07;;
54853;SDS011;40747;49.480;8.658;2023-04-19T10:32:52;9.32;;;5.72;;
54853;SDS011;40747;49.480;8.658;2023-04-19T10:35:25;10.40;;;5.63;;
54853;SDS011;40747;49.480;8.658;2023-04-19T10:38:11;9.95;;;4.68;;
54853;SDS011;40747;49.480;8.658;2023-04-19T10:43:23;9.73;;;5.47;;
54853;SDS011;40747;49.480;8.658;2023-04-19T10:45:49;10.63;;;5.53;;
54853;SDS011;40747;49.480;8.658;2023-04-19T10:56:12;7.80;;;4.65;;
54853;SDS011;40747;49.480;8.658;2023-04-19T10:59:23;9.10;;;4.82;;
54853;SDS011;40747;49.480;8.658;2023-04-19T11:04:17;5.90;;;3.45;;
54853;SDS011;40747;49.480;8.658;2023-04-19T11:12:07;8.80;;;4.63;;
54853;SDS011;40747;49.480;8.658;2023-04-19T11:17:14;7.85;;;3.85;;
54853;SDS011;40747;49.480;8.658;2023-04-19T11:19:52;5.50;;;2.65;;
54853;SDS011;40747;49.480;8.658;2023-04-19T11:22:32;4.13;;;2.70;;
54853;SDS011;40747;49.480;8.658;2023-04-19T11:27:38;7.68;;;3.28;;
54853;SDS011;40747;49.480;8.658;2023-04-19T11:30:05;5.82;;;3.78;;
54853;SDS011;40747;49.480;8.658;2023-04-19T11:32:33;3.85;;;2.80;;
54853;SDS011;40747;49.480;8.658;2023-04-19T11:35:03;6.72;;;3.22;;
54853;SDS011;40747;49.480;8.658;2023-04-19T11:37:32;4.35;;;2.60;;
54853;SDS011;40747;49.480;8.658;2023-04-19T11:39:58;5.22;;;2.70;;
54853;SDS011;40747;49.480;8.658;2023-04-19T11:42:23;3.83;;;2.67;;
54853;SDS011;40747;49.480;8.658;2023-04-19T11:44:50;4.07;;;2.65;;
54853;SDS011;40747;49.480;8.658;2023-04-19T11:47:16;4.85;;;2.72;;
54853;SDS011;40747;49.480;8.658;2023-04-19T11:49:41;4.63;;;2.70;;
54853;SDS011;40747;49.480;8.658;2023-04-19T11:52:07;3.97;;;2.67;;
54853;SDS011;40747;49.480;8.658;2023-04-19T11:54:32;4.68;;;3.05;;
54853;SDS011;40747;49.480;8.658;2023-04-19T11:59:31;4.25;;;3.00;;
54853;SDS011;40747;49.480;8.658;2023-04-19T12:02:07;6.75;;;2.42;;
54853;SDS011;40747;49.480;8.658;2023-04-19T12:04:36;5.03;;;2.58;;
54853;SDS011;40747;49.480;8.658;2023-04-19T12:07:02;3.85;;;2.65;;
54853;SDS011;40747;49.480;8.658;2023-04-19T12:09:31;3.70;;;2.85;;
54853;SDS011;40747;49.480;8.658;2023-04-19T12:11:57;3.55;;;2.33;;
54853;SDS011;40747;49.480;8.658;2023-04-19T12:14:22;5.65;;;2.63;;
54853;SDS011;40747;49.480;8.658;2023-04-19T12:17:06;4.97;;;2.53;;
54853;SDS011;40747;49.480;8.658;2023-04-19T12:19:36;3.08;;;2.03;;
54853;SDS011;40747;49.480;8.658;2023-04-19T12:22:24;2.33;;;1.65;;
54853;SDS011;40747;49.480;8.658;2023-04-19T12:24:50;4.35;;;2.58;;
54853;SDS011;40747;49.480;8.658;2023-04-19T12:27:17;3.15;;;2.20;;
54853;SDS011;40747;49.480;8.658;2023-04-19T12:29:42;3.75;;;2.75;;
54853;SDS011;40747;49.480;8.658;2023-04-19T12:32:08;3.78;;;2.38;;
54853;SDS011;40747;49.480;8.658;2023-04-19T12:34:34;3.17;;;2.30;;
54853;SDS011;40747;49.480;8.658;2023-04-19T12:37:00;5.18;;;2.35;;
54853;SDS011;40747;49.480;8.658;2023-04-19T12:39:28;3.13;;;2.13;;
54853;SDS011;40747;49.480;8.658;2023-04-19T12:41:53;3.90;;;2.22;;
54853;SDS011;40747;49.480;8.658;2023-04-19T12:44:18;3.10;;;2.13;;
54853;SDS011;40747;49.480;8.658;2023-04-19T12:46:44;5.35;;;2.80;;
54853;SDS011;40747;49.480;8.658;2023-04-19T12:49:09;4.45;;;2.55;;
54853;SDS011;40747;49.480;8.658;2023-04-19T12:51:34;5.82;;;2.55;;
54853;SDS011;40747;49.480;8.658;2023-04-19T12:54:00;4.05;;;2.42;;
54853;SDS011;40747;49.480;8.658;2023-04-19T12:56:26;4.35;;;2.47;;
54853;SDS011;40747;49.480;8.658;2023-04-19T12:58:51;3.65;;;2.58;;
54853;SDS011;40747;49.480;8.658;2023-04-19T13:01:17;4.75;;;2.97;;
54853;SDS011;40747;49.480;8.658;2023-04-19T13:03:43;4.03;;;1.77;;
54853;SDS011;40747;49.480;8.658;2023-04-19T13:06:08;4.00;;;2.17;;
54853;SDS011;40747;49.480;8.658;2023-04-19T13:08:36;6.28;;;2.42;;
54853;SDS011;40747;49.480;8.658;2023-04-19T13:11:02;4.95;;;2.72;;
54853;SDS011;40747;49.480;8.658;2023-04-19T13:13:30;4.50;;;2.47;;
54853;SDS011;40747;49.480;8.658;2023-04-19T13:15:55;4.03;;;1.83;;
54853;SDS011;40747;49.480;8.658;2023-04-19T13:18:21;3.65;;;2.15;;
54853;SDS011;40747;49.480;8.658;2023-04-19T13:20:46;5.18;;;2.42;;
54853;SDS011;40747;49.480;8.658;2023-04-19T13:23:13;3.50;;;2.72;;
54853;SDS011;40747;49.480;8.658;2023-04-19T13:25:39;3.03;;;2.40;;
54853;SDS011;40747;49.480;8.658;2023-04-19T13:28:04;3.53;;;2.53;;
54853;SDS011;40747;49.480;8.658;2023-04-19T13:30:30;4.45;;;2.88;;
54853;SDS011;40747;49.480;8.658;2023-04-19T13:32:55;3.65;;;2.60;;
54853;SDS011;40747;49.480;8.658;2023-04-19T13:35:21;4.72;;;3.03;;
54853;SDS011;40747;49.480;8.658;2023-04-19T13:37:46;4.80;;;2.15;;
54853;SDS011;40747;49.480;8.658;2023-04-19T13:40:11;3.50;;;1.65;;
54853;SDS011;40747;49.480;8.658;2023-04-19T13:42:37;2.67;;;1.85;;
54853;SDS011;40747;49.480;8.658;2023-04-19T13:45:02;3.42;;;1.63;;
54853;SDS011;40747;49.480;8.658;2023-04-19T13:47:28;2.75;;;1.85;;
54853;SDS011;40747;49.480;8.658;2023-04-19T13:49:53;3.13;;;2.10;;
54853;SDS011;40747;49.480;8.658;2023-04-19T13:52:19;3.20;;;2.45;;
54853;SDS011;40747;49.480;8.658;2023-04-19T13:54:44;4.57;;;2.65;;
54853;SDS011;40747;49.480;8.658;2023-04-19T13:57:10;3.25;;;2.08;;
54853;SDS011;40747;49.480;8.658;2023-04-19T13:59:36;2.78;;;1.95;;
54853;SDS011;40747;49.480;8.658;2023-04-19T14:02:02;2.75;;;1.75;;
54853;SDS011;40747;49.480;8.658;2023-04-19T14:04:28;3.50;;;2.10;;
54853;SDS011;40747;49.480;8.658;2023-04-19T14:06:53;3.10;;;1.50;;
54853;SDS011;40747;49.480;8.658;2023-04-19T14:09:19;3.33;;;1.88;;
54853;SDS011;40747;49.480;8.658;2023-04-19T14:11:44;3.85;;;1.65;;
54853;SDS011;40747;49.480;8.658;2023-04-19T14:14:09;4.18;;;1.75;;
54853;SDS011;40747;49.480;8.658;2023-04-19T14:16:35;6.28;;;2.08;;
54853;SDS011;40747;49.480;8.658;2023-04-19T14:19:00;3.28;;;1.70;;
54853;SDS011;40747;49.480;8.658;2023-04-19T14:21:25;2.75;;;1.45;;
54853;SDS011;40747;49.480;8.658;2023-04-19T14:23:52;3.17;;;1.70;;
54853;SDS011;40747;49.480;8.658;2023-04-19T14:26:17;1.35;;;1.00;;
54853;SDS011;40747;49.480;8.658;2023-04-19T14:28:43;2.40;;;1.30;;
54853;SDS011;40747;49.480;8.658;2023-04-19T14:31:08;2.78;;;1.63;;
54853;SDS011;40747;49.480;8.658;2023-04-19T14:33:33;5.07;;;1.80;;
54853;SDS011;40747;49.480;8.658;2023-04-19T14:35:59;5.80;;;1.95;;
54853;SDS011;40747;49.480;8.658;2023-04-19T14:38:25;2.35;;;1.13;;
54853;SDS011;40747;49.480;8.658;2023-04-19T14:40:50;3.33;;;1.75;;
54853;SDS011;40747;49.480;8.658;2023-04-19T14:43:18;4.97;;;1.33;;
54853;SDS011;40747;49.480;8.658;2023-04-19T14:45:43;3.50;;;1.60;;
54853;SDS011;40747;49.480;8.658;2023-04-19T14:48:09;3.28;;;1.17;;
54853;SDS011;40747;49.480;8.658;2023-04-19T14:50:34;2.72;;;1.35;;
54853;SDS011;40747;49.480;8.658;2023-04-19T14:53:00;1.75;;;1.15;;
54853;SDS011;40747;49.480;8.658;2023-04-19T14:55:25;1.70;;;1.08;;
54853;SDS011;40747;49.480;8.658;2023-04-19T14:57:51;4.78;;;1.33;;
54853;SDS011;40747;49.480;8.658;2023-04-19T15:00:17;2.55;;;1.20;;
54853;SDS011;40747;49.480;8.658;2023-04-19T15:02:42;1.10;;;1.00;;
54853;SDS011;40747;49.480;8.658;2023-04-19T15:05:08;2.95;;;0.90;;
54853;SDS011;40747;49.480;8.658;2023-04-19T15:07:33;2.33;;;1.15;;
54853;SDS011;40747;49.480;8.658;2023-04-19T15:09:58;1.50;;;0.82;;